Little Rock, Arkansas
Current Conditions -  °F | °C
As of 5:53 PM on Thursday 18 Dec 2014 (Local Time) from KLIT Reporting Station
Haze Haze  
Wind Chill: 38°   Ceiling: 600
Heat Index: 42°   Visibility: 4mi
Dew Point: 38°   Wind: 7mph
Humidity: 85%   Direction: 40°NE
Pressure: 30.21"   Gusts: NA
Location:  34.75°N, 92.27°W
Report Text: KLIT 182353Z 04006KT 4SM BR OVC006 06/03 A3021 RMK AO2 SLP232 CIG RGD T00560033 10067 20050 53008
Loading
Personal Weather Stations






























Interactive Weather Map New forecast layout! Learn more

10-Day Weather Forecast

Advertisements
Track Severe Weather on mobile